sensor_id;sensor_type;location;lat;lon;timestamp;pressure;altitude;pressure_sealevel;temperature
67829;BMP280;54626;45.436;10.942;2022-11-20T00:01:23;99916.28;;;7.74
67829;BMP280;54626;45.436;10.942;2022-11-20T00:03:54;99919.47;;;7.65
67829;BMP280;54626;45.436;10.942;2022-11-20T00:06:23;99921.28;;;7.63
67829;BMP280;54626;45.436;10.942;2022-11-20T00:08:50;99917.13;;;7.56
67829;BMP280;54626;45.436;10.942;2022-11-20T00:11:21;99919.03;;;7.48
67829;BMP280;54626;45.436;10.942;2022-11-20T00:13:50;99921.56;;;7.46
67829;BMP280;54626;45.436;10.942;2022-11-20T00:16:20;99930.03;;;7.48
67829;BMP280;54626;45.436;10.942;2022-11-20T00:18:47;99919.31;;;7.45
67829;BMP280;54626;45.436;10.942;2022-11-20T00:21:22;99924.84;;;7.45
67829;BMP280;54626;45.436;10.942;2022-11-20T00:23:50;99935.72;;;7.37
67829;BMP280;54626;45.436;10.942;2022-11-20T00:26:22;99932.53;;;7.33
67829;BMP280;54626;45.436;10.942;2022-11-20T00:28:54;99935.38;;;7.28
67829;BMP280;54626;45.436;10.942;2022-11-20T00:31:21;99939.63;;;7.29
67829;BMP280;54626;45.436;10.942;2022-11-20T00:33:47;99941.94;;;7.25
67829;BMP280;54626;45.436;10.942;2022-11-20T00:36:19;99939.50;;;7.22
67829;BMP280;54626;45.436;10.942;2022-11-20T00:38:46;99951.00;;;7.20
67829;BMP280;54626;45.436;10.942;2022-11-20T00:41:15;99952.59;;;7.16
67829;BMP280;54626;45.436;10.942;2022-11-20T00:43:42;99943.69;;;7.10
67829;BMP280;54626;45.436;10.942;2022-11-20T00:46:20;99946.44;;;7.10
67829;BMP280;54626;45.436;10.942;2022-11-20T00:48:53;99955.19;;;7.08
67829;BMP280;54626;45.436;10.942;2022-11-20T00:51:23;99947.47;;;7.07
67829;BMP280;54626;45.436;10.942;2022-11-20T00:53:50;99957.00;;;7.06
67829;BMP280;54626;45.436;10.942;2022-11-20T00:56:18;99952.56;;;7.03
67829;BMP280;54626;45.436;10.942;2022-11-20T00:58:46;99956.34;;;7.00
67829;BMP280;54626;45.436;10.942;2022-11-20T01:01:21;99956.41;;;6.94
67829;BMP280;54626;45.436;10.942;2022-11-20T01:03:51;99960.75;;;6.90
67829;BMP280;54626;45.436;10.942;2022-11-20T01:06:23;99957.75;;;6.88
67829;BMP280;54626;45.436;10.942;2022-11-20T01:08:53;99958.81;;;6.85
67829;BMP280;54626;45.436;10.942;2022-11-20T01:11:22;99960.75;;;6.90
67829;BMP280;54626;45.436;10.942;2022-11-20T01:13:50;99962.81;;;6.84
67829;BMP280;54626;45.436;10.942;2022-11-20T01:16:18;99961.31;;;6.83
67829;BMP280;54626;45.436;10.942;2022-11-20T01:18:46;99953.09;;;6.83
67829;BMP280;54626;45.436;10.942;2022-11-20T01:21:19;99964.59;;;6.81
67829;BMP280;54626;45.436;10.942;2022-11-20T01:23:46;99955.41;;;6.79
67829;BMP280;54626;45.436;10.942;2022-11-20T01:26:18;99952.13;;;6.80
67829;BMP280;54626;45.436;10.942;2022-11-20T01:28:44;99944.19;;;6.77
67829;BMP280;54626;45.436;10.942;2022-11-20T01:34:05;99956.72;;;6.72
67829;BMP280;54626;45.436;10.942;2022-11-20T01:36:33;99957.78;;;6.69
67829;BMP280;54626;45.436;10.942;2022-11-20T01:39:02;99966.97;;;6.72
67829;BMP280;54626;45.436;10.942;2022-11-20T01:41:32;99962.53;;;6.69
67829;BMP280;54626;45.436;10.942;2022-11-20T01:44:20;99964.75;;;6.70
67829;BMP280;54626;45.436;10.942;2022-11-20T01:47:01;99966.56;;;6.68
67829;BMP280;54626;45.436;10.942;2022-11-20T01:49:38;99968.78;;;6.69
67829;BMP280;54626;45.436;10.942;2022-11-20T01:52:15;99959.13;;;6.63
67829;BMP280;54626;45.436;10.942;2022-11-20T01:57:33;99965.66;;;6.60
67829;BMP280;54626;45.436;10.942;2022-11-20T02:00:06;99963.50;;;6.53
67829;BMP280;54626;45.436;10.942;2022-11-20T02:02:34;99973.00;;;6.52
67829;BMP280;54626;45.436;10.942;2022-11-20T02:05:12;99963.03;;;6.49
67829;BMP280;54626;45.436;10.942;2022-11-20T02:07:41;99961.25;;;6.51
67829;BMP280;54626;45.436;10.942;2022-11-20T02:10:14;99960.56;;;6.45
67829;BMP280;54626;45.436;10.942;2022-11-20T02:12:41;99950.41;;;6.41
67829;BMP280;54626;45.436;10.942;2022-11-20T02:15:44;99955.97;;;6.35
67829;BMP280;54626;45.436;10.942;2022-11-20T02:18:14;99956.06;;;6.30
67829;BMP280;54626;45.436;10.942;2022-11-20T02:20:45;99958.06;;;6.29
67829;BMP280;54626;45.436;10.942;2022-11-20T02:23:19;99959.09;;;6.26
67829;BMP280;54626;45.436;10.942;2022-11-20T02:25:49;99965.16;;;6.19
67829;BMP280;54626;45.436;10.942;2022-11-20T02:28:17;99953.50;;;6.13
67829;BMP280;54626;45.436;10.942;2022-11-20T02:30:44;99958.75;;;6.11
67829;BMP280;54626;45.436;10.942;2022-11-20T02:33:11;99957.28;;;6.10
67829;BMP280;54626;45.436;10.942;2022-11-20T02:35:46;99952.38;;;6.03
67829;BMP280;54626;45.436;10.942;2022-11-20T02:38:14;99956.38;;;6.02
67829;BMP280;54626;45.436;10.942;2022-11-20T02:40:41;99964.38;;;6.00
67829;BMP280;54626;45.436;10.942;2022-11-20T02:43:08;99958.44;;;5.96
67829;BMP280;54626;45.436;10.942;2022-11-20T02:45:37;99955.94;;;5.93
67829;BMP280;54626;45.436;10.942;2022-11-20T02:48:06;99968.28;;;5.86
67829;BMP280;54626;45.436;10.942;2022-11-20T02:50:36;99959.28;;;5.86
67829;BMP280;54626;45.436;10.942;2022-11-20T02:53:03;99960.03;;;5.86
67829;BMP280;54626;45.436;10.942;2022-11-20T02:55:35;99964.03;;;5.85
67829;BMP280;54626;45.436;10.942;2022-11-20T02:58:03;99958.59;;;5.80
67829;BMP280;54626;45.436;10.942;2022-11-20T03:00:32;99960.16;;;5.75
67829;BMP280;54626;45.436;10.942;2022-11-20T03:03:01;99964.94;;;5.69
67829;BMP280;54626;45.436;10.942;2022-11-20T03:05:29;99954.31;;;5.60
67829;BMP280;54626;45.436;10.942;2022-11-20T03:07:55;99957.56;;;5.59
67829;BMP280;54626;45.436;10.942;2022-11-20T03:10:22;99964.53;;;5.60
67829;BMP280;54626;45.436;10.942;2022-11-20T03:12:53;99960.34;;;5.53
67829;BMP280;54626;45.436;10.942;2022-11-20T03:15:24;99966.78;;;5.56
67829;BMP280;54626;45.436;10.942;2022-11-20T03:17:54;99964.34;;;5.52
67829;BMP280;54626;45.436;10.942;2022-11-20T03:20:22;99964.09;;;5.50
67829;BMP280;54626;45.436;10.942;2022-11-20T03:22:53;99957.72;;;5.43
67829;BMP280;54626;45.436;10.942;2022-11-20T03:25:23;99963.44;;;5.39
67829;BMP280;54626;45.436;10.942;2022-11-20T03:27:49;99961.47;;;5.34
67829;BMP280;54626;45.436;10.942;2022-11-20T03:30:22;99961.78;;;5.31
67829;BMP280;54626;45.436;10.942;2022-11-20T03:32:53;99969.78;;;5.29
67829;BMP280;54626;45.436;10.942;2022-11-20T03:35:20;99973.31;;;5.24
67829;BMP280;54626;45.436;10.942;2022-11-20T03:37:47;99974.06;;;5.19
67829;BMP280;54626;45.436;10.942;2022-11-20T03:40:15;99970.09;;;5.20
67829;BMP280;54626;45.436;10.942;2022-11-20T03:42:43;99978.31;;;5.20
67829;BMP280;54626;45.436;10.942;2022-11-20T03:45:17;99971.81;;;5.17
67829;BMP280;54626;45.436;10.942;2022-11-20T03:47:46;99973.31;;;5.18
67829;BMP280;54626;45.436;10.942;2022-11-20T03:50:14;99973.63;;;5.15
67829;BMP280;54626;45.436;10.942;2022-11-20T03:52:41;99986.09;;;5.05
67829;BMP280;54626;45.436;10.942;2022-11-20T03:55:08;99990.63;;;4.97
67829;BMP280;54626;45.436;10.942;2022-11-20T03:57:34;99997.59;;;4.98
67829;BMP280;54626;45.436;10.942;2022-11-20T04:00:04;99995.63;;;4.93
67829;BMP280;54626;45.436;10.942;2022-11-20T04:02:33;100000.31;;;5.03
67829;BMP280;54626;45.436;10.942;2022-11-20T04:04:59;100007.50;;;5.12
67829;BMP280;54626;45.436;10.942;2022-11-20T04:07:26;100006.75;;;5.11
67829;BMP280;54626;45.436;10.942;2022-11-20T04:09:52;100017.47;;;5.04
67829;BMP280;54626;45.436;10.942;2022-11-20T04:12:19;100013.06;;;4.90
67829;BMP280;54626;45.436;10.942;2022-11-20T04:14:45;100013.91;;;4.79
67829;BMP280;54626;45.436;10.942;2022-11-20T04:17:11;100018.16;;;4.69
67829;BMP280;54626;45.436;10.942;2022-11-20T04:19:38;100020.94;;;4.64
67829;BMP280;54626;45.436;10.942;2022-11-20T04:22:07;100011.44;;;4.70
67829;BMP280;54626;45.436;10.942;2022-11-20T04:24:40;100008.19;;;4.77
67829;BMP280;54626;45.436;10.942;2022-11-20T04:27:07;100013.41;;;4.75
67829;BMP280;54626;45.436;10.942;2022-11-20T04:29:34;100020.41;;;4.65
67829;BMP280;54626;45.436;10.942;2022-11-20T04:32:01;100017.16;;;4.67
67829;BMP280;54626;45.436;10.942;2022-11-20T04:34:27;100018.19;;;4.64
67829;BMP280;54626;45.436;10.942;2022-11-20T04:36:54;100020.19;;;4.58
67829;BMP280;54626;45.436;10.942;2022-11-20T04:39:21;100013.47;;;4.59
67829;BMP280;54626;45.436;10.942;2022-11-20T04:41:49;100015.66;;;4.66
67829;BMP280;54626;45.436;10.942;2022-11-20T04:44:35;100012.47;;;4.62
67829;BMP280;54626;45.436;10.942;2022-11-20T04:47:02;100015.19;;;4.62
67829;BMP280;54626;45.436;10.942;2022-11-20T04:49:28;100013.47;;;4.59
67829;BMP280;54626;45.436;10.942;2022-11-20T04:51:56;100011.00;;;4.50
67829;BMP280;54626;45.436;10.942;2022-11-20T04:54:28;100014.53;;;4.45
67829;BMP280;54626;45.436;10.942;2022-11-20T04:56:55;100018.03;;;4.46
67829;BMP280;54626;45.436;10.942;2022-11-20T04:59:39;100021.00;;;4.42
67829;BMP280;54626;45.436;10.942;2022-11-20T05:02:05;100018.00;;;4.40
67829;BMP280;54626;45.436;10.942;2022-11-20T05:04:32;100022.50;;;4.32
67829;BMP280;54626;45.436;10.942;2022-11-20T05:06:59;100018.28;;;4.31
67829;BMP280;54626;45.436;10.942;2022-11-20T05:09:28;100021.78;;;4.26
67829;BMP280;54626;45.436;10.942;2022-11-20T05:11:55;100025.53;;;4.29
67829;BMP280;54626;45.436;10.942;2022-11-20T05:14:21;100032.47;;;4.24
67829;BMP280;54626;45.436;10.942;2022-11-20T05:16:51;100027.78;;;4.25
67829;BMP280;54626;45.436;10.942;2022-11-20T05:19:20;100040.94;;;4.21
67829;BMP280;54626;45.436;10.942;2022-11-20T05:21:47;100037.97;;;4.19
67829;BMP280;54626;45.436;10.942;2022-11-20T05:24:14;100033.72;;;4.12
67829;BMP280;54626;45.436;10.942;2022-11-20T05:26:40;100039.19;;;4.23
67829;BMP280;54626;45.436;10.942;2022-11-20T05:29:11;100046.66;;;4.28
67829;BMP280;54626;45.436;10.942;2022-11-20T05:31:40;100044.94;;;4.20
67829;BMP280;54626;45.436;10.942;2022-11-20T05:34:07;100044.19;;;4.08
67829;BMP280;54626;45.436;10.942;2022-11-20T05:36:34;100049.94;;;4.05
67829;BMP280;54626;45.436;10.942;2022-11-20T05:39:03;100053.63;;;3.96
67829;BMP280;54626;45.436;10.942;2022-11-20T05:41:33;100056.63;;;3.98
67829;BMP280;54626;45.436;10.942;2022-11-20T05:44:00;100061.09;;;3.79
67829;BMP280;54626;45.436;10.942;2022-11-20T05:46:26;100059.88;;;3.75
67829;BMP280;54626;45.436;10.942;2022-11-20T05:48:56;100063.84;;;3.63
67829;BMP280;54626;45.436;10.942;2022-11-20T05:51:26;100064.56;;;3.69
67829;BMP280;54626;45.436;10.942;2022-11-20T05:53:52;100067.56;;;3.71
67829;BMP280;54626;45.436;10.942;2022-11-20T05:56:23;100065.84;;;3.79
67829;BMP280;54626;45.436;10.942;2022-11-20T05:58:55;100063.88;;;3.85
67829;BMP280;54626;45.436;10.942;2022-11-20T06:01:27;100076.03;;;3.95
67829;BMP280;54626;45.436;10.942;2022-11-20T06:03:54;100083.47;;;3.94
67829;BMP280;54626;45.436;10.942;2022-11-20T06:06:23;100081.25;;;3.87
67829;BMP280;54626;45.436;10.942;2022-11-20T06:08:54;100083.97;;;3.87
67829;BMP280;54626;45.436;10.942;2022-11-20T06:11:23;100086.47;;;3.91
67829;BMP280;54626;45.436;10.942;2022-11-20T06:13:51;100083.72;;;3.85
67829;BMP280;54626;45.436;10.942;2022-11-20T06:16:19;100091.94;;;3.80
67829;BMP280;54626;45.436;10.942;2022-11-20T06:18:47;100093.66;;;3.72
67829;BMP280;54626;45.436;10.942;2022-11-20T06:21:16;100098.13;;;3.75
67829;BMP280;54626;45.436;10.942;2022-11-20T06:23:43;100098.88;;;3.75
67829;BMP280;54626;45.436;10.942;2022-11-20T06:26:13;100101.13;;;3.77
67829;BMP280;54626;45.436;10.942;2022-11-20T06:28:43;100104.34;;;3.75
67829;BMP280;54626;45.436;10.942;2022-11-20T06:31:14;100106.09;;;3.78
67829;BMP280;54626;45.436;10.942;2022-11-20T06:33:42;100109.56;;;3.79
67829;BMP280;54626;45.436;10.942;2022-11-20T06:36:13;100117.28;;;3.80
67829;BMP280;54626;45.436;10.942;2022-11-20T06:38:44;100114.53;;;3.80
67829;BMP280;54626;45.436;10.942;2022-11-20T06:41:14;100119.75;;;3.78
67829;BMP280;54626;45.436;10.942;2022-11-20T06:43:44;100116.53;;;3.80
67829;BMP280;54626;45.436;10.942;2022-11-20T06:46:23;100110.06;;;3.88
67829;BMP280;54626;45.436;10.942;2022-11-20T06:48:50;100118.06;;;4.03
67829;BMP280;54626;45.436;10.942;2022-11-20T06:51:19;100121.75;;;4.11
67829;BMP280;54626;45.436;10.942;2022-11-20T06:53:49;100123.50;;;4.19
67829;BMP280;54626;45.436;10.942;2022-11-20T06:56:19;100128.50;;;4.21
67829;BMP280;54626;45.436;10.942;2022-11-20T06:58:49;100136.19;;;4.22
67829;BMP280;54626;45.436;10.942;2022-11-20T07:01:16;100144.41;;;4.28
67829;BMP280;54626;45.436;10.942;2022-11-20T07:03:43;100141.41;;;4.31
67829;BMP280;54626;45.436;10.942;2022-11-20T07:06:10;100141.16;;;4.46
67829;BMP280;54626;45.436;10.942;2022-11-20T07:08:37;100147.59;;;4.59
67829;BMP280;54626;45.436;10.942;2022-11-20T07:11:05;100149.81;;;4.66
67829;BMP280;54626;45.436;10.942;2022-11-20T07:13:35;100150.56;;;4.77
67829;BMP280;54626;45.436;10.942;2022-11-20T07:16:07;100157.28;;;4.76
67829;BMP280;54626;45.436;10.942;2022-11-20T07:18:34;100161.22;;;4.86
67829;BMP280;54626;45.436;10.942;2022-11-20T07:21:06;100161.22;;;4.97
67829;BMP280;54626;45.436;10.942;2022-11-20T07:23:42;100169.63;;;5.10
67829;BMP280;54626;45.436;10.942;2022-11-20T07:26:10;100163.38;;;5.21
67829;BMP280;54626;45.436;10.942;2022-11-20T07:28:37;100167.34;;;5.31
67829;BMP280;54626;45.436;10.942;2022-11-20T07:31:04;100168.25;;;5.44
67829;BMP280;54626;45.436;10.942;2022-11-20T07:33:31;100173.19;;;5.56
67829;BMP280;54626;45.436;10.942;2022-11-20T07:36:02;100173.84;;;5.68
67829;BMP280;54626;45.436;10.942;2022-11-20T07:38:30;100172.03;;;5.81
67829;BMP280;54626;45.436;10.942;2022-11-20T07:40:57;100175.16;;;5.96
67829;BMP280;54626;45.436;10.942;2022-11-20T07:43:27;100171.13;;;6.03
67829;BMP280;54626;45.436;10.942;2022-11-20T07:45:56;100180.19;;;6.22
67829;BMP280;54626;45.436;10.942;2022-11-20T07:48:24;100183.31;;;6.37
67829;BMP280;54626;45.436;10.942;2022-11-20T07:50:57;100182.19;;;6.50
67829;BMP280;54626;45.436;10.942;2022-11-20T07:53:24;100179.41;;;6.56
67829;BMP280;54626;45.436;10.942;2022-11-20T07:55:51;100177.94;;;6.79
67829;BMP280;54626;45.436;10.942;2022-11-20T07:58:21;100183.22;;;6.95
67829;BMP280;54626;45.436;10.942;2022-11-20T08:00:47;100183.06;;;7.12
67829;BMP280;54626;45.436;10.942;2022-11-20T08:03:14;100184.25;;;7.16
67829;BMP280;54626;45.436;10.942;2022-11-20T08:05:44;100182.78;;;7.33
67829;BMP280;54626;45.436;10.942;2022-11-20T08:08:11;100185.59;;;7.46
67829;BMP280;54626;45.436;10.942;2022-11-20T08:10:37;100179.72;;;7.55
67829;BMP280;54626;45.436;10.942;2022-11-20T08:13:04;100184.66;;;7.62
67829;BMP280;54626;45.436;10.942;2022-11-20T08:15:50;100193.69;;;7.76
67829;BMP280;54626;45.436;10.942;2022-11-20T08:18:17;100196.19;;;7.92
67829;BMP280;54626;45.436;10.942;2022-11-20T08:21:03;100196.44;;;8.07
67829;BMP280;54626;45.436;10.942;2022-11-20T08:23:30;100195.78;;;8.20
67829;BMP280;54626;45.436;10.942;2022-11-20T08:25:56;100201.81;;;8.31
67829;BMP280;54626;45.436;10.942;2022-11-20T08:44:09;100206.34;;;9.11
67829;BMP280;54626;45.436;10.942;2022-11-20T08:46:40;100201.97;;;9.29
67829;BMP280;54626;45.436;10.942;2022-11-20T08:49:09;100202.88;;;9.44
67829;BMP280;54626;45.436;10.942;2022-11-20T08:51:38;100203.47;;;9.63
67829;BMP280;54626;45.436;10.942;2022-11-20T08:54:05;100210.88;;;9.68
67829;BMP280;54626;45.436;10.942;2022-11-20T08:56:32;100213.00;;;9.95
67829;BMP280;54626;45.436;10.942;2022-11-20T08:58:58;100216.88;;;10.00
67829;BMP280;54626;45.436;10.942;2022-11-20T09:01:48;100222.00;;;10.16
67829;BMP280;54626;45.436;10.942;2022-11-20T09:04:14;100219.66;;;10.41
67829;BMP280;54626;45.436;10.942;2022-11-20T09:06:41;100223.84;;;10.55
67829;BMP280;54626;45.436;10.942;2022-11-20T09:09:08;100235.00;;;10.69
67829;BMP280;54626;45.436;10.942;2022-11-20T09:11:34;100229.72;;;10.86
67829;BMP280;54626;45.436;10.942;2022-11-20T09:14:03;100228.34;;;11.00
67829;BMP280;54626;45.436;10.942;2022-11-20T09:16:30;100232.84;;;11.18
67829;BMP280;54626;45.436;10.942;2022-11-20T09:18:57;100230.88;;;11.34
67829;BMP280;54626;45.436;10.942;2022-11-20T09:21:43;100235.22;;;11.57
67829;BMP280;54626;45.436;10.942;2022-11-20T09:24:10;100242.25;;;11.65
67829;BMP280;54626;45.436;10.942;2022-11-20T09:26:41;100231.75;;;11.79
67829;BMP280;54626;45.436;10.942;2022-11-20T09:29:11;100240.59;;;11.77
67829;BMP280;54626;45.436;10.942;2022-11-20T09:31:37;100234.16;;;11.90
67829;BMP280;54626;45.436;10.942;2022-11-20T09:34:04;100242.47;;;11.90
67829;BMP280;54626;45.436;10.942;2022-11-20T09:36:32;100239.16;;;11.84
67829;BMP280;54626;45.436;10.942;2022-11-20T09:38:58;100232.69;;;11.89
67829;BMP280;54626;45.436;10.942;2022-11-20T09:41:48;100240.81;;;12.09
67829;BMP280;54626;45.436;10.942;2022-11-20T09:50:32;100230.28;;;12.30
67829;BMP280;54626;45.436;10.942;2022-11-20T09:55:38;100220.13;;;12.47
67829;BMP280;54626;45.436;10.942;2022-11-20T09:58:13;100227.28;;;12.73
67829;BMP280;54626;45.436;10.942;2022-11-20T10:00:43;100217.47;;;12.72
67829;BMP280;54626;45.436;10.942;2022-11-20T10:03:18;100218.03;;;12.70
67829;BMP280;54626;45.436;10.942;2022-11-20T10:05:54;100217.81;;;12.91
67829;BMP280;54626;45.436;10.942;2022-11-20T10:08:28;100221.13;;;12.96
67829;BMP280;54626;45.436;10.942;2022-11-20T10:11:05;100217.41;;;13.01
67829;BMP280;54626;45.436;10.942;2022-11-20T10:16:18;100208.72;;;12.97
67829;BMP280;54626;45.436;10.942;2022-11-20T10:19:03;100214.81;;;13.03
67829;BMP280;54626;45.436;10.942;2022-11-20T10:24:28;100207.47;;;13.30
67829;BMP280;54626;45.436;10.942;2022-11-20T10:27:21;100211.88;;;13.33
67829;BMP280;54626;45.436;10.942;2022-11-20T10:30:10;100204.28;;;13.34
67829;BMP280;54626;45.436;10.942;2022-11-20T10:32:47;100217.19;;;13.46
67829;BMP280;54626;45.436;10.942;2022-11-20T10:35:21;100217.66;;;13.60
67829;BMP280;54626;45.436;10.942;2022-11-20T10:38:00;100212.09;;;13.60
67829;BMP280;54626;45.436;10.942;2022-11-20T10:40:49;100217.19;;;13.70
67829;BMP280;54626;45.436;10.942;2022-11-20T10:43:33;100206.50;;;13.67
67829;BMP280;54626;45.436;10.942;2022-11-20T10:46:03;100210.50;;;13.81
67829;BMP280;54626;45.436;10.942;2022-11-20T10:48:31;100192.63;;;13.67
67829;BMP280;54626;45.436;10.942;2022-11-20T10:56:50;100195.56;;;13.93
67829;BMP280;54626;45.436;10.942;2022-11-20T11:01:54;100170.97;;;13.82
67829;BMP280;54626;45.436;10.942;2022-11-20T11:04:36;100189.19;;;14.00
67829;BMP280;54626;45.436;10.942;2022-11-20T11:07:10;100181.34;;;14.06
67829;BMP280;54626;45.436;10.942;2022-11-20T11:09:52;100192.50;;;14.23
67829;BMP280;54626;45.436;10.942;2022-11-20T11:12:24;100182.28;;;14.26
67829;BMP280;54626;45.436;10.942;2022-11-20T11:14:53;100177.09;;;14.05
67829;BMP280;54626;45.436;10.942;2022-11-20T11:17:23;100191.09;;;13.98
67829;BMP280;54626;45.436;10.942;2022-11-20T11:20:23;100190.00;;;13.93
67829;BMP280;54626;45.436;10.942;2022-11-20T11:22:58;100183.63;;;14.00
67829;BMP280;54626;45.436;10.942;2022-11-20T11:25:33;100176.25;;;13.95
67829;BMP280;54626;45.436;10.942;2022-11-20T11:28:20;100176.72;;;14.09
67829;BMP280;54626;45.436;10.942;2022-11-20T11:30:47;100173.16;;;14.08
67829;BMP280;54626;45.436;10.942;2022-11-20T11:33:32;100174.31;;;14.05
67829;BMP280;54626;45.436;10.942;2022-11-20T11:36:19;100175.28;;;14.00
67829;BMP280;54626;45.436;10.942;2022-11-20T11:38:50;100173.66;;;13.97
67829;BMP280;54626;45.436;10.942;2022-11-20T11:41:44;100176.59;;;13.99
67829;BMP280;54626;45.436;10.942;2022-11-20T11:44:24;100172.75;;;13.95
67829;BMP280;54626;45.436;10.942;2022-11-20T11:47:34;100167.09;;;14.02
67829;BMP280;54626;45.436;10.942;2022-11-20T11:58:40;100157.00;;;14.31
67829;BMP280;54626;45.436;10.942;2022-11-20T12:06:46;100152.09;;;14.39
67829;BMP280;54626;45.436;10.942;2022-11-20T12:09:15;100155.28;;;14.35
67829;BMP280;54626;45.436;10.942;2022-11-20T12:11:51;100159.06;;;14.47
67829;BMP280;54626;45.436;10.942;2022-11-20T12:14:39;100157.75;;;14.32
67829;BMP280;54626;45.436;10.942;2022-11-20T12:17:09;100150.31;;;14.34
67829;BMP280;54626;45.436;10.942;2022-11-20T12:19:37;100147.13;;;14.21
67829;BMP280;54626;45.436;10.942;2022-11-20T12:22:25;100146.94;;;14.35
67829;BMP280;54626;45.436;10.942;2022-11-20T12:25:00;100142.91;;;14.29
67829;BMP280;54626;45.436;10.942;2022-11-20T12:40:49;100138.44;;;14.33
67829;BMP280;54626;45.436;10.942;2022-11-20T12:43:24;100133.25;;;14.30
67829;BMP280;54626;45.436;10.942;2022-11-20T12:46:25;100132.63;;;14.22
67829;BMP280;54626;45.436;10.942;2022-11-20T12:52:01;100134.19;;;14.16
67829;BMP280;54626;45.436;10.942;2022-11-20T12:54:44;100134.19;;;14.16
67829;BMP280;54626;45.436;10.942;2022-11-20T12:57:25;100129.44;;;14.26
67829;BMP280;54626;45.436;10.942;2022-11-20T13:00:16;100131.22;;;14.14
67829;BMP280;54626;45.436;10.942;2022-11-20T13:08:34;100131.97;;;14.14
67829;BMP280;54626;45.436;10.942;2022-11-20T13:11:37;100135.00;;;14.09
67829;BMP280;54626;45.436;10.942;2022-11-20T13:16:58;100121.06;;;13.92
67829;BMP280;54626;45.436;10.942;2022-11-20T13:19:31;100124.50;;;14.00
67829;BMP280;54626;45.436;10.942;2022-11-20T13:21:59;100125.09;;;13.98
67829;BMP280;54626;45.436;10.942;2022-11-20T13:24:28;100122.22;;;14.06
67829;BMP280;54626;45.436;10.942;2022-11-20T13:27:17;100111.00;;;13.96
67829;BMP280;54626;45.436;10.942;2022-11-20T13:30:02;100112.25;;;13.86
67829;BMP280;54626;45.436;10.942;2022-11-20T13:32:29;100104.28;;;13.82
67829;BMP280;54626;45.436;10.942;2022-11-20T13:35:03;100103.13;;;13.68
67829;BMP280;54626;45.436;10.942;2022-11-20T13:37:35;100104.59;;;13.69
67829;BMP280;54626;45.436;10.942;2022-11-20T13:40:22;100092.81;;;13.62
67829;BMP280;54626;45.436;10.942;2022-11-20T13:45:26;100096.88;;;13.61
67829;BMP280;54626;45.436;10.942;2022-11-20T13:47:57;100092.91;;;13.47
67829;BMP280;54626;45.436;10.942;2022-11-20T13:50:40;100094.53;;;13.33
67829;BMP280;54626;45.436;10.942;2022-11-20T13:56:21;100105.28;;;13.29
67829;BMP280;54626;45.436;10.942;2022-11-20T14:01:48;100112.03;;;13.18
67829;BMP280;54626;45.436;10.942;2022-11-20T14:04:24;100103.91;;;13.13
67829;BMP280;54626;45.436;10.942;2022-11-20T14:06:55;100093.03;;;13.07
67829;BMP280;54626;45.436;10.942;2022-11-20T14:09:30;100101.53;;;13.09
67829;BMP280;54626;45.436;10.942;2022-11-20T14:11:59;100105.25;;;13.04
67829;BMP280;54626;45.436;10.942;2022-11-20T14:14:35;100111.19;;;13.01
67829;BMP280;54626;45.436;10.942;2022-11-20T14:19:38;100103.50;;;12.85
67829;BMP280;54626;45.436;10.942;2022-11-20T14:22:15;100114.28;;;12.81
67829;BMP280;54626;45.436;10.942;2022-11-20T14:24:47;100110.22;;;12.74
67829;BMP280;54626;45.436;10.942;2022-11-20T14:27:17;100096.16;;;12.65
67829;BMP280;54626;45.436;10.942;2022-11-20T14:29:49;100099.69;;;12.65
67829;BMP280;54626;45.436;10.942;2022-11-20T14:32:22;100100.84;;;12.62
67829;BMP280;54626;45.436;10.942;2022-11-20T14:34:52;100095.47;;;12.57
67829;BMP280;54626;45.436;10.942;2022-11-20T14:37:24;100087.75;;;12.48
67829;BMP280;54626;45.436;10.942;2022-11-20T14:39:54;100091.81;;;12.47
67829;BMP280;54626;45.436;10.942;2022-11-20T14:42:24;100096.47;;;12.29
67829;BMP280;54626;45.436;10.942;2022-11-20T14:44:56;100094.66;;;12.17
67829;BMP280;54626;45.436;10.942;2022-11-20T14:47:26;100093.78;;;12.15
67829;BMP280;54626;45.436;10.942;2022-11-20T14:49:54;100096.88;;;12.11
67829;BMP280;54626;45.436;10.942;2022-11-20T14:52:23;100110.03;;;12.11
67829;BMP280;54626;45.436;10.942;2022-11-20T14:54:53;100109.28;;;12.03
67829;BMP280;54626;45.436;10.942;2022-11-20T14:57:36;100113.38;;;11.94
67829;BMP280;54626;45.436;10.942;2022-11-20T15:02:41;100104.53;;;11.81
67829;BMP280;54626;45.436;10.942;2022-11-20T15:05:08;100102.31;;;11.72
67829;BMP280;54626;45.436;10.942;2022-11-20T15:07:38;100101.75;;;11.66
67829;BMP280;54626;45.436;10.942;2022-11-20T15:10:12;100100.63;;;11.54
67829;BMP280;54626;45.436;10.942;2022-11-20T15:12:50;100105.06;;;11.42
67829;BMP280;54626;45.436;10.942;2022-11-20T15:15:45;100112.41;;;11.32
67829;BMP280;54626;45.436;10.942;2022-11-20T15:18:14;100114.97;;;11.23
67829;BMP280;54626;45.436;10.942;2022-11-20T15:20:42;100120.63;;;11.10
67829;BMP280;54626;45.436;10.942;2022-11-20T15:23:11;100109.72;;;10.97
67829;BMP280;54626;45.436;10.942;2022-11-20T15:25:42;100112.28;;;10.87
67829;BMP280;54626;45.436;10.942;2022-11-20T15:31:01;100120.28;;;10.63
67829;BMP280;54626;45.436;10.942;2022-11-20T15:33:33;100111.72;;;10.46
67829;BMP280;54626;45.436;10.942;2022-11-20T15:36:01;100124.19;;;10.40
67829;BMP280;54626;45.436;10.942;2022-11-20T15:38:28;100128.34;;;10.26
67829;BMP280;54626;45.436;10.942;2022-11-20T15:40:54;100130.47;;;10.12
67829;BMP280;54626;45.436;10.942;2022-11-20T15:43:21;100128.31;;;9.98
67829;BMP280;54626;45.436;10.942;2022-11-20T15:45:50;100138.00;;;9.91
67829;BMP280;54626;45.436;10.942;2022-11-20T15:48:21;100131.09;;;9.78
67829;BMP280;54626;45.436;10.942;2022-11-20T15:50:57;100134.13;;;9.67
67829;BMP280;54626;45.436;10.942;2022-11-20T15:53:24;100134.19;;;9.54
67829;BMP280;54626;45.436;10.942;2022-11-20T15:55:51;100129.44;;;9.41
67829;BMP280;54626;45.436;10.942;2022-11-20T15:58:20;100130.84;;;9.35
67829;BMP280;54626;45.436;10.942;2022-11-20T16:00:55;100140.53;;;9.28